sensor_id;sensor_type;location;lat;lon;timestamp;temperature;humidity
78541;SHT31;67835;51.968;5.646;2024-02-28T00:00:31;5.9;70.2
78541;SHT31;67835;51.968;5.646;2024-02-28T00:02:59;5.9;70.5
78541;SHT31;67835;51.968;5.646;2024-02-28T00:05:28;5.9;70.4
78541;SHT31;67835;51.968;5.646;2024-02-28T00:07:56;5.9;70.1
78541;SHT31;67835;51.968;5.646;2024-02-28T00:10:25;5.9;69.9
78541;SHT31;67835;51.968;5.646;2024-02-28T00:12:53;6.0;69.9
78541;SHT31;67835;51.968;5.646;2024-02-28T00:15:23;6.0;69.9
78541;SHT31;67835;51.968;5.646;2024-02-28T00:17:54;5.9;70.1
78541;SHT31;67835;51.968;5.646;2024-02-28T00:20:24;5.9;70.0
78541;SHT31;67835;51.968;5.646;2024-02-28T00:22:54;5.9;70.0
78541;SHT31;67835;51.968;5.646;2024-02-28T00:25:23;5.9;70.0
78541;SHT31;67835;51.968;5.646;2024-02-28T00:27:52;5.9;70.1
78541;SHT31;67835;51.968;5.646;2024-02-28T00:30:21;5.9;70.2
78541;SHT31;67835;51.968;5.646;2024-02-28T00:32:49;5.9;70.3
78541;SHT31;67835;51.968;5.646;2024-02-28T00:35:17;5.9;70.3
78541;SHT31;67835;51.968;5.646;2024-02-28T00:37:46;5.9;70.4
78541;SHT31;67835;51.968;5.646;2024-02-28T00:40:16;5.9;70.4
78541;SHT31;67835;51.968;5.646;2024-02-28T00:42:44;5.9;70.4
78541;SHT31;67835;51.968;5.646;2024-02-28T00:45:13;5.9;70.4
78541;SHT31;67835;51.968;5.646;2024-02-28T00:47:43;5.9;70.2
78541;SHT31;67835;51.968;5.646;2024-02-28T00:50:11;6.0;70.2
78541;SHT31;67835;51.968;5.646;2024-02-28T00:52:40;6.0;70.2
78541;SHT31;67835;51.968;5.646;2024-02-28T00:55:08;6.0;70.5
78541;SHT31;67835;51.968;5.646;2024-02-28T00:57:37;6.0;70.5
78541;SHT31;67835;51.968;5.646;2024-02-28T01:00:06;6.0;70.9
78541;SHT31;67835;51.968;5.646;2024-02-28T01:02:36;6.0;70.7
78541;SHT31;67835;51.968;5.646;2024-02-28T01:05:08;6.0;70.4
78541;SHT31;67835;51.968;5.646;2024-02-28T01:07:37;6.0;70.5
78541;SHT31;67835;51.968;5.646;2024-02-28T01:10:07;6.0;70.6
78541;SHT31;67835;51.968;5.646;2024-02-28T01:12:37;6.0;71.1
78541;SHT31;67835;51.968;5.646;2024-02-28T01:15:07;6.1;70.9
78541;SHT31;67835;51.968;5.646;2024-02-28T01:17:35;6.1;70.8
78541;SHT31;67835;51.968;5.646;2024-02-28T01:20:05;6.1;70.6
78541;SHT31;67835;51.968;5.646;2024-02-28T01:22:35;6.1;70.3
78541;SHT31;67835;51.968;5.646;2024-02-28T01:25:04;6.2;70.2
78541;SHT31;67835;51.968;5.646;2024-02-28T01:27:34;6.2;70.0
78541;SHT31;67835;51.968;5.646;2024-02-28T01:30:03;6.2;70.2
78541;SHT31;67835;51.968;5.646;2024-02-28T01:32:32;6.2;70.2
78541;SHT31;67835;51.968;5.646;2024-02-28T01:35:02;6.2;70.2
78541;SHT31;67835;51.968;5.646;2024-02-28T01:37:31;6.2;70.2
78541;SHT31;67835;51.968;5.646;2024-02-28T01:40:00;6.2;70.1
78541;SHT31;67835;51.968;5.646;2024-02-28T01:42:30;6.3;69.8
78541;SHT31;67835;51.968;5.646;2024-02-28T01:44:59;6.3;70.0
78541;SHT31;67835;51.968;5.646;2024-02-28T01:47:27;6.3;70.0
78541;SHT31;67835;51.968;5.646;2024-02-28T01:49:57;6.3;70.0
78541;SHT31;67835;51.968;5.646;2024-02-28T01:52:28;6.3;70.0
78541;SHT31;67835;51.968;5.646;2024-02-28T01:54:57;6.3;70.1
78541;SHT31;67835;51.968;5.646;2024-02-28T01:57:27;6.3;69.9
78541;SHT31;67835;51.968;5.646;2024-02-28T01:59:56;6.3;70.1
78541;SHT31;67835;51.968;5.646;2024-02-28T02:02:25;6.3;70.3
78541;SHT31;67835;51.968;5.646;2024-02-28T02:04:53;6.3;70.1
78541;SHT31;67835;51.968;5.646;2024-02-28T02:07:24;6.3;69.8
78541;SHT31;67835;51.968;5.646;2024-02-28T02:09:54;6.3;69.6
78541;SHT31;67835;51.968;5.646;2024-02-28T02:12:22;6.3;69.2
78541;SHT31;67835;51.968;5.646;2024-02-28T02:14:51;6.3;69.5
78541;SHT31;67835;51.968;5.646;2024-02-28T02:17:19;6.3;69.5
78541;SHT31;67835;51.968;5.646;2024-02-28T02:19:49;6.3;69.4
78541;SHT31;67835;51.968;5.646;2024-02-28T02:22:18;6.3;69.6
78541;SHT31;67835;51.968;5.646;2024-02-28T02:24:48;6.3;69.7
78541;SHT31;67835;51.968;5.646;2024-02-28T02:27:17;6.3;69.7
78541;SHT31;67835;51.968;5.646;2024-02-28T02:29:45;6.3;69.9
78541;SHT31;67835;51.968;5.646;2024-02-28T02:32:14;6.3;69.5
78541;SHT31;67835;51.968;5.646;2024-02-28T02:34:42;6.3;69.3
78541;SHT31;67835;51.968;5.646;2024-02-28T02:37:10;6.3;69.1
78541;SHT31;67835;51.968;5.646;2024-02-28T02:39:39;6.3;69.2
78541;SHT31;67835;51.968;5.646;2024-02-28T02:42:08;6.2;69.2
78541;SHT31;67835;51.968;5.646;2024-02-28T02:44:36;6.2;69.2
78541;SHT31;67835;51.968;5.646;2024-02-28T02:47:04;6.2;69.0
78541;SHT31;67835;51.968;5.646;2024-02-28T02:49:33;6.2;69.0
78541;SHT31;67835;51.968;5.646;2024-02-28T02:52:03;6.2;68.8
78541;SHT31;67835;51.968;5.646;2024-02-28T02:54:32;6.2;68.8
78541;SHT31;67835;51.968;5.646;2024-02-28T02:57:01;6.2;68.8
78541;SHT31;67835;51.968;5.646;2024-02-28T02:59:29;6.2;68.9
78541;SHT31;67835;51.968;5.646;2024-02-28T03:01:57;6.1;69.2
78541;SHT31;67835;51.968;5.646;2024-02-28T03:04:26;6.1;69.1
78541;SHT31;67835;51.968;5.646;2024-02-28T03:06:54;6.1;68.5
78541;SHT31;67835;51.968;5.646;2024-02-28T03:09:23;6.1;68.5
78541;SHT31;67835;51.968;5.646;2024-02-28T03:11:51;6.1;68.5
78541;SHT31;67835;51.968;5.646;2024-02-28T03:14:20;6.0;68.6
78541;SHT31;67835;51.968;5.646;2024-02-28T03:16:51;6.0;68.5
78541;SHT31;67835;51.968;5.646;2024-02-28T03:19:20;6.0;68.5
78541;SHT31;67835;51.968;5.646;2024-02-28T03:21:49;5.9;68.4
78541;SHT31;67835;51.968;5.646;2024-02-28T03:24:17;5.9;68.6
78541;SHT31;67835;51.968;5.646;2024-02-28T03:26:46;5.9;68.4
78541;SHT31;67835;51.968;5.646;2024-02-28T03:29:14;5.8;68.3
78541;SHT31;67835;51.968;5.646;2024-02-28T03:31:42;5.8;68.3
78541;SHT31;67835;51.968;5.646;2024-02-28T03:34:11;5.8;68.4
78541;SHT31;67835;51.968;5.646;2024-02-28T03:36:39;5.7;68.6
78541;SHT31;67835;51.968;5.646;2024-02-28T03:39:07;5.7;68.8
78541;SHT31;67835;51.968;5.646;2024-02-28T03:41:38;5.7;69.1
78541;SHT31;67835;51.968;5.646;2024-02-28T03:44:08;5.7;69.1
78541;SHT31;67835;51.968;5.646;2024-02-28T03:46:37;5.6;69.1
78541;SHT31;67835;51.968;5.646;2024-02-28T03:49:05;5.6;69.0
78541;SHT31;67835;51.968;5.646;2024-02-28T03:51:39;5.6;69.0
78541;SHT31;67835;51.968;5.646;2024-02-28T03:54:07;5.5;68.8
78541;SHT31;67835;51.968;5.646;2024-02-28T03:56:36;5.5;68.5
78541;SHT31;67835;51.968;5.646;2024-02-28T03:59:04;5.4;68.5
78541;SHT31;67835;51.968;5.646;2024-02-28T04:01:33;5.3;68.8
78541;SHT31;67835;51.968;5.646;2024-02-28T04:04:01;5.3;68.9
78541;SHT31;67835;51.968;5.646;2024-02-28T04:06:30;5.2;68.7
78541;SHT31;67835;51.968;5.646;2024-02-28T04:08:59;5.2;68.8
78541;SHT31;67835;51.968;5.646;2024-02-28T04:11:29;5.1;68.9
78541;SHT31;67835;51.968;5.646;2024-02-28T04:13:57;5.1;69.3
78541;SHT31;67835;51.968;5.646;2024-02-28T04:16:25;5.0;69.6
78541;SHT31;67835;51.968;5.646;2024-02-28T04:18:54;5.0;69.8
78541;SHT31;67835;51.968;5.646;2024-02-28T04:21:22;5.0;70.0
78541;SHT31;67835;51.968;5.646;2024-02-28T04:23:51;4.9;70.2
78541;SHT31;67835;51.968;5.646;2024-02-28T04:26:19;4.9;70.4
78541;SHT31;67835;51.968;5.646;2024-02-28T04:28:50;4.9;70.8
78541;SHT31;67835;51.968;5.646;2024-02-28T04:31:18;4.9;71.2
78541;SHT31;67835;51.968;5.646;2024-02-28T04:33:46;4.9;71.6
78541;SHT31;67835;51.968;5.646;2024-02-28T04:36:15;4.9;72.0
78541;SHT31;67835;51.968;5.646;2024-02-28T04:38:44;4.9;72.2
78541;SHT31;67835;51.968;5.646;2024-02-28T04:41:12;4.9;72.3
78541;SHT31;67835;51.968;5.646;2024-02-28T04:43:42;4.9;72.3
78541;SHT31;67835;51.968;5.646;2024-02-28T04:46:12;4.9;72.4
78541;SHT31;67835;51.968;5.646;2024-02-28T04:48:40;4.9;72.3
78541;SHT31;67835;51.968;5.646;2024-02-28T04:51:08;5.0;72.1
78541;SHT31;67835;51.968;5.646;2024-02-28T04:53:39;5.0;72.0
78541;SHT31;67835;51.968;5.646;2024-02-28T04:56:08;5.0;71.9
78541;SHT31;67835;51.968;5.646;2024-02-28T04:58:38;5.0;72.0
78541;SHT31;67835;51.968;5.646;2024-02-28T05:01:06;5.0;72.1
78541;SHT31;67835;51.968;5.646;2024-02-28T05:03:34;5.0;72.1
78541;SHT31;67835;51.968;5.646;2024-02-28T05:06:03;5.0;72.2
78541;SHT31;67835;51.968;5.646;2024-02-28T05:08:32;5.1;72.2
78541;SHT31;67835;51.968;5.646;2024-02-28T05:11:02;5.1;72.0
78541;SHT31;67835;51.968;5.646;2024-02-28T05:13:30;5.1;72.1
78541;SHT31;67835;51.968;5.646;2024-02-28T05:15:59;5.1;71.8
78541;SHT31;67835;51.968;5.646;2024-02-28T05:18:27;5.2;71.6
78541;SHT31;67835;51.968;5.646;2024-02-28T05:20:56;5.2;71.6
